createdAt,value
2018-08-31T00:02:46.653Z,101658.95
2018-08-31T00:06:08.002Z,101662.56
2018-08-31T00:11:07.821Z,101664.27
2018-08-31T00:14:12.174Z,101666.87
2018-08-31T00:17:16.497Z,101660.46
2018-08-31T00:20:20.744Z,101668.72
2018-08-31T00:24:40.529Z,101673.44
2018-08-31T00:28:02.068Z,101661.71
2018-08-31T00:34:32.123Z,101657.37
2018-08-31T00:38:54.280Z,101655.13
2018-08-31T00:44:20.712Z,101661.95
2018-08-31T00:47:25.144Z,101659.35
2018-08-31T00:50:30.073Z,101664.97
2018-08-31T00:53:34.351Z,101657.55
2018-08-31T00:56:38.653Z,101664.04
2018-08-31T00:59:42.964Z,101662.26
2018-08-31T01:02:47.457Z,101661.73
2018-08-31T01:05:51.847Z,101658.70
2018-08-31T01:08:56.085Z,101657.77
2018-08-31T01:12:00.393Z,101659.94
2018-08-31T01:15:04.712Z,101659.50
2018-08-31T01:18:09.035Z,101656.83
2018-08-31T01:21:13.334Z,101665.56
2018-08-31T01:24:17.708Z,101657.83
2018-08-31T01:27:21.955Z,101662.11
2018-08-31T01:30:26.299Z,101660.75
2018-08-31T01:33:30.621Z,101664.94
2018-08-31T01:36:34.965Z,101661.34
2018-08-31T01:39:39.309Z,101668.64
2018-08-31T01:42:43.684Z,101666.34
2018-08-31T01:45:48.009Z,101663.30
2018-08-31T01:48:52.376Z,101662.84
2018-08-31T01:51:56.659Z,101659.28
2018-08-31T01:55:00.971Z,101662.25
2018-08-31T01:58:05.294Z,101663.92
2018-08-31T02:01:09.616Z,101659.59
2018-08-31T02:04:14.134Z,101657.05
2018-08-31T02:07:18.486Z,101656.59
2018-08-31T02:10:22.717Z,101658.27
2018-08-31T02:13:26.995Z,101656.11
2018-08-31T02:16:31.333Z,101655.67
2018-08-31T02:19:35.648Z,101657.42
2018-08-31T02:22:39.986Z,101657.78
2018-08-31T02:25:44.272Z,101656.83
2018-08-31T02:28:48.563Z,101647.59
2018-08-31T02:31:52.868Z,101651.05
2018-08-31T02:34:57.115Z,101648.97
2018-08-31T02:38:01.409Z,101648.44
2018-08-31T02:41:05.851Z,101647.95
2018-08-31T02:44:10.143Z,101649.18
2018-08-31T02:47:14.390Z,101648.81
2018-08-31T02:50:18.769Z,101653.14
2018-08-31T02:53:23.090Z,101651.25
2018-08-31T02:56:27.441Z,101650.27
2018-08-31T02:59:31.756Z,101653.45
2018-08-31T03:02:36.055Z,101653.16
2018-08-31T03:05:40.512Z,101660.47
2018-08-31T03:08:44.824Z,101659.14
2018-08-31T03:11:49.072Z,101659.22
2018-08-31T03:14:53.439Z,101656.98
2018-08-31T03:17:57.684Z,101656.46
2018-08-31T03:21:02.093Z,101662.91
2018-08-31T03:24:06.447Z,101660.67
2018-08-31T03:27:10.862Z,101659.72
2018-08-31T03:30:15.161Z,101668.34
2018-08-31T03:33:19.510Z,101666.03
2018-08-31T03:36:23.776Z,101669.91
2018-08-31T03:39:28.136Z,101670.05
2018-08-31T03:42:32.472Z,101671.88
2018-08-31T03:45:36.789Z,101664.92
2018-08-31T03:48:41.117Z,101676.27
2018-08-31T03:51:45.434Z,101680.50
2018-08-31T03:54:50.094Z,101677.08
2018-08-31T03:57:54.487Z,101675.28
2018-08-31T04:00:58.792Z,101679.89
2018-08-31T04:04:03.208Z,101674.46
2018-08-31T04:07:07.569Z,101669.88
2018-08-31T04:10:11.844Z,101670.09
2018-08-31T04:13:16.096Z,101672.41
2018-08-31T04:16:20.397Z,101672.95
2018-08-31T04:19:24.701Z,101683.89
2018-08-31T04:22:29.041Z,101677.94
2018-08-31T04:25:33.361Z,101679.23
2018-08-31T04:28:37.702Z,101678.86
2018-08-31T04:31:42.166Z,101683.22
2018-08-31T04:34:46.533Z,101685.00
2018-08-31T04:37:50.867Z,101683.34
2018-08-31T04:40:55.173Z,101685.09
2018-08-31T04:43:59.449Z,101679.38
2018-08-31T04:47:03.836Z,101685.94
2018-08-31T04:50:08.366Z,101689.00
2018-08-31T04:53:12.642Z,101685.59
2018-08-31T04:56:17.006Z,101687.88
2018-08-31T04:59:21.326Z,101694.57
2018-08-31T05:02:25.650Z,101686.87
2018-08-31T05:05:29.961Z,101690.86
2018-08-31T05:08:34.281Z,101687.92
2018-08-31T05:11:38.584Z,101689.25
2018-08-31T05:14:42.912Z,101685.45
2018-08-31T05:17:47.222Z,101689.86
2018-08-31T05:20:51.480Z,101683.83
2018-08-31T05:23:55.909Z,101689.16
2018-08-31T05:27:00.186Z,101681.88
2018-08-31T05:30:04.757Z,101684.56
2018-08-31T05:33:09.173Z,101684.25
2018-08-31T05:36:13.423Z,101685.66
2018-08-31T05:39:17.780Z,101686.22
2018-08-31T05:42:22.176Z,101689.84
2018-08-31T05:45:26.562Z,101689.52
2018-08-31T05:48:30.923Z,101687.48
2018-08-31T05:51:35.189Z,101696.36
2018-08-31T05:54:39.526Z,101696.53
2018-08-31T05:57:43.990Z,101692.29
2018-08-31T06:00:48.324Z,101695.53
2018-08-31T06:03:52.696Z,101697.38
2018-08-31T06:06:56.991Z,101699.72
2018-08-31T06:10:01.307Z,101697.24
2018-08-31T06:13:05.866Z,101697.31
2018-08-31T06:16:10.313Z,101693.05
2018-08-31T06:19:14.574Z,101698.84
2018-08-31T06:22:18.820Z,101709.78
2018-08-31T06:25:23.121Z,101705.44
2018-08-31T06:28:27.479Z,101699.97
2018-08-31T06:31:31.729Z,101705.33
2018-08-31T06:34:36.078Z,101706.43
2018-08-31T06:37:40.440Z,101706.61
2018-08-31T06:40:44.716Z,101703.28
2018-08-31T06:43:48.988Z,101706.47
2018-08-31T06:46:53.345Z,101703.11
2018-08-31T06:49:57.732Z,101696.30
2018-08-31T06:53:02.020Z,101698.67
2018-08-31T06:56:06.373Z,101702.83
2018-08-31T06:59:10.654Z,101703.80
2018-08-31T07:02:15.023Z,101706.97
2018-08-31T07:05:19.481Z,101711.47
2018-08-31T07:08:23.747Z,101708.13
2018-08-31T07:11:28.055Z,101705.63
2018-08-31T07:14:32.376Z,101713.12
2018-08-31T07:17:36.958Z,101706.36
2018-08-31T07:20:41.214Z,101709.94
2018-08-31T07:23:45.553Z,101710.44
2018-08-31T07:26:49.956Z,101713.20
2018-08-31T07:29:54.208Z,101713.34
2018-08-31T07:32:58.535Z,101712.66
2018-08-31T07:36:02.823Z,101712.33
2018-08-31T07:39:09.886Z,101714.55
2018-08-31T07:42:14.272Z,101708.39
2018-08-31T07:45:18.572Z,101722.05
2018-08-31T07:48:22.889Z,101721.60
2018-08-31T07:51:27.192Z,101722.94
2018-08-31T07:54:31.553Z,101718.58
2018-08-31T07:57:35.847Z,101719.88
2018-08-31T08:00:40.196Z,101721.53
2018-08-31T08:03:44.470Z,101718.84
2018-08-31T08:06:48.875Z,101715.92
2018-08-31T08:09:53.240Z,101714.41
2018-08-31T08:12:57.606Z,101715.07
2018-08-31T08:16:01.886Z,101720.38
2018-08-31T08:19:06.220Z,101721.70
2018-08-31T08:22:10.522Z,101723.94
2018-08-31T08:25:14.852Z,101725.30
2018-08-31T08:28:19.196Z,101725.27
2018-08-31T08:31:23.526Z,101722.13
2018-08-31T08:34:27.820Z,101725.73
2018-08-31T08:37:32.119Z,101722.32
2018-08-31T08:40:36.448Z,101721.94
2018-08-31T08:43:40.734Z,101722.39
2018-08-31T08:46:45.223Z,101722.98
2018-08-31T08:49:49.521Z,101723.89
2018-08-31T08:52:53.834Z,101730.47
2018-08-31T08:55:58.201Z,101729.17
2018-08-31T08:59:02.503Z,101726.14
2018-08-31T09:02:07.037Z,101730.56
2018-08-31T09:05:11.450Z,101725.73
2018-08-31T09:08:15.772Z,101730.12
2018-08-31T09:11:20.092Z,101741.05
2018-08-31T09:14:24.392Z,101739.29
2018-08-31T09:17:28.738Z,101744.61
2018-08-31T09:20:33.086Z,101737.59
2018-08-31T09:23:37.349Z,101738.44
2018-08-31T09:26:41.697Z,101741.52
2018-08-31T09:29:45.940Z,101739.76
2018-08-31T09:32:50.260Z,101737.98
2018-08-31T09:35:54.556Z,101737.52
2018-08-31T09:38:58.822Z,101736.60
2018-08-31T09:42:03.159Z,101738.39
2018-08-31T09:45:07.724Z,101742.34
2018-08-31T09:48:12.019Z,101736.22
2018-08-31T09:51:17.001Z,101736.22
2018-08-31T09:54:21.375Z,101738.45
2018-08-31T09:57:25.758Z,101732.20
2018-08-31T10:00:35.395Z,101740.56
2018-08-31T10:03:39.795Z,101735.80
2018-08-31T10:06:44.213Z,101743.73
2018-08-31T10:09:48.534Z,101743.23
2018-08-31T10:12:52.994Z,101745.01
2018-08-31T10:15:57.360Z,101746.70
2018-08-31T10:19:01.665Z,101740.53
2018-08-31T10:22:05.942Z,101732.25
2018-08-31T10:25:10.356Z,101740.23
2018-08-31T10:28:14.744Z,101724.77
2018-08-31T10:31:19.043Z,101726.88
2018-08-31T10:34:23.337Z,101730.17
2018-08-31T10:37:27.755Z,101728.67
2018-08-31T10:40:32.057Z,101725.11
2018-08-31T10:43:36.503Z,101721.48
2018-08-31T10:46:40.758Z,101719.61
2018-08-31T10:49:45.141Z,101724.34
2018-08-31T10:52:49.408Z,101724.07
2018-08-31T10:55:53.743Z,101726.95
2018-08-31T10:58:58.052Z,101727.59
2018-08-31T11:02:02.334Z,101727.92
2018-08-31T11:05:06.701Z,101715.05
2018-08-31T11:08:11.064Z,101716.58
2018-08-31T11:11:15.327Z,101712.94
2018-08-31T11:14:19.618Z,101717.16
2018-08-31T11:17:23.985Z,101718.59
2018-08-31T11:20:28.296Z,101714.29
2018-08-31T11:23:32.613Z,101717.70
2018-08-31T11:26:36.935Z,101716.61
2018-08-31T11:29:41.270Z,101720.86
2018-08-31T11:32:45.702Z,101725.89
2018-08-31T11:35:50.033Z,101719.56
2018-08-31T11:38:54.358Z,101730.72
2018-08-31T11:41:58.671Z,101727.77
2018-08-31T11:45:03.020Z,101729.08
2018-08-31T11:48:07.352Z,101724.57
2018-08-31T11:51:11.650Z,101715.10
2018-08-31T11:54:15.948Z,101721.09
2018-08-31T11:57:20.254Z,101715.58
2018-08-31T12:00:24.546Z,101721.55
2018-08-31T12:03:28.911Z,101716.33
2018-08-31T12:06:33.348Z,101719.75
2018-08-31T12:09:37.635Z,101723.91
2018-08-31T12:12:41.973Z,101727.33
2018-08-31T12:15:46.298Z,101723.98
2018-08-31T12:18:50.624Z,101723.36
2018-08-31T12:21:54.963Z,101714.23
2018-08-31T12:24:59.369Z,101713.50
2018-08-31T12:28:03.702Z,101718.11
2018-08-31T12:31:08.019Z,101717.66
2018-08-31T12:34:12.448Z,101720.97
2018-08-31T12:37:16.845Z,101714.69
2018-08-31T12:40:21.376Z,101721.83
2018-08-31T12:43:25.710Z,101719.55
2018-08-31T12:46:30.026Z,101725.95
2018-08-31T12:49:34.367Z,101730.78
2018-08-31T12:52:38.708Z,101725.64
2018-08-31T12:55:43.183Z,101731.31
2018-08-31T12:58:47.486Z,101730.89
2018-08-31T13:01:51.829Z,101725.11
2018-08-31T13:04:56.464Z,101728.47
2018-08-31T13:08:01.062Z,101725.31
2018-08-31T13:11:06.913Z,101718.78
2018-08-31T13:14:11.781Z,101724.30
2018-08-31T13:17:16.209Z,101731.13
2018-08-31T13:20:20.636Z,101730.68
2018-08-31T13:23:25.033Z,101729.58
2018-08-31T13:26:29.447Z,101727.27
2018-08-31T13:29:33.905Z,101724.32
2018-08-31T13:32:38.997Z,101725.43
2018-08-31T13:35:43.792Z,101731.13
2018-08-31T13:38:48.486Z,101731.30
2018-08-31T13:41:53.130Z,101730.02
2018-08-31T13:44:57.726Z,101731.82
2018-08-31T13:48:02.271Z,101736.22
2018-08-31T13:51:06.803Z,101737.97
2018-08-31T13:54:11.449Z,101738.42
2018-08-31T13:57:15.963Z,101744.58
2018-08-31T14:00:21.366Z,101753.81
2018-08-31T14:03:25.929Z,101752.95
2018-08-31T14:06:30.376Z,101752.05
2018-08-31T14:09:35.390Z,101749.44
2018-08-31T14:12:42.568Z,101750.73
2018-08-31T14:15:47.154Z,101741.53
2018-08-31T14:18:51.617Z,101740.62
2018-08-31T14:21:55.954Z,101745.03
2018-08-31T14:25:01.060Z,101751.16
2018-08-31T14:28:05.696Z,101746.36
2018-08-31T14:31:10.633Z,101748.54
2018-08-31T14:34:17.063Z,101755.56
2018-08-31T14:37:21.546Z,101771.30
2018-08-31T14:40:25.944Z,101757.68
2018-08-31T14:43:30.375Z,101760.70
2018-08-31T14:46:34.935Z,101761.56
2018-08-31T14:49:39.503Z,101756.66
2018-08-31T14:52:44.494Z,101759.70
2018-08-31T14:55:51.573Z,101763.64
2018-08-31T14:58:56.139Z,101760.94
2018-08-31T15:02:00.574Z,101761.35
2018-08-31T15:05:05.089Z,101761.80
2018-08-31T15:08:10.091Z,101766.66
2018-08-31T15:11:14.928Z,101767.07
2018-08-31T15:14:19.453Z,101764.02
2018-08-31T15:17:24.522Z,101762.70
2018-08-31T15:20:29.256Z,101752.75
2018-08-31T15:23:36.085Z,101759.36
2018-08-31T15:26:41.108Z,101757.71
2018-08-31T15:29:45.922Z,101752.48
2018-08-31T15:32:50.484Z,101749.72
2018-08-31T15:35:55.132Z,101753.06
2018-08-31T15:38:59.715Z,101749.59
2018-08-31T15:42:04.059Z,101751.30
2018-08-31T15:45:08.597Z,101752.21
2018-08-31T15:48:12.989Z,101745.25
2018-08-31T15:51:17.364Z,101747.20
2018-08-31T15:54:21.801Z,101750.14
2018-08-31T15:57:26.295Z,101751.22
2018-08-31T16:00:30.609Z,101760.72
2018-08-31T16:03:34.971Z,101758.18
2018-08-31T16:06:39.294Z,101758.21
2018-08-31T16:09:43.721Z,101762.61
2018-08-31T16:12:48.039Z,101766.95
2018-08-31T16:15:52.461Z,101766.50
2018-08-31T16:18:56.904Z,101766.46
2018-08-31T16:22:01.165Z,101774.34
2018-08-31T16:25:05.498Z,101785.73
2018-08-31T16:28:09.875Z,101788.69
2018-08-31T16:31:14.266Z,101795.57
2018-08-31T16:34:18.718Z,101798.53
2018-08-31T16:37:23.624Z,101798.02
2018-08-31T16:40:28.507Z,101803.55
2018-08-31T16:43:32.976Z,101800.39
2018-08-31T16:46:37.336Z,101795.40
2018-08-31T16:49:41.643Z,101798.80
2018-08-31T16:52:46.029Z,101803.92
2018-08-31T16:55:50.436Z,101799.88
2018-08-31T16:58:56.366Z,101798.98
2018-08-31T17:02:00.732Z,101798.44
2018-08-31T17:05:05.335Z,101801.91
2018-08-31T17:08:09.689Z,101807.53
2018-08-31T17:11:14.090Z,101808.79
2018-08-31T17:14:18.432Z,101800.45
2018-08-31T17:17:22.712Z,101806.08
2018-08-31T17:20:27.162Z,101806.45
2018-08-31T17:23:31.429Z,101808.52
2018-08-31T17:26:41.027Z,101808.52
2018-08-31T17:29:47.002Z,101808.08
2018-08-31T17:32:56.751Z,101805.43
2018-08-31T17:36:06.519Z,101808.86
2018-08-31T17:39:11.351Z,101806.27
2018-08-31T17:42:15.637Z,101815.01
2018-08-31T17:45:20.848Z,101821.49
2018-08-31T17:48:25.292Z,101818.41
2018-08-31T17:51:29.609Z,101819.65
2018-08-31T17:54:33.937Z,101827.51
2018-08-31T17:57:38.276Z,101829.63
2018-08-31T18:00:42.730Z,101824.79
2018-08-31T18:03:47.309Z,101832.65
2018-08-31T18:06:53.480Z,101835.38
2018-08-31T18:09:58.215Z,101833.66
2018-08-31T18:13:02.625Z,101845.56
2018-08-31T18:16:07.364Z,101846.87
2018-08-31T18:19:12.610Z,101848.18
2018-08-31T18:22:17.178Z,101852.11
2018-08-31T18:25:21.623Z,101857.39
2018-08-31T18:28:26.121Z,101859.17
2018-08-31T18:31:30.638Z,101861.76
2018-08-31T18:34:35.179Z,101866.12
2018-08-31T18:37:39.684Z,101867.44
2018-08-31T18:40:44.241Z,101866.16
2018-08-31T18:43:48.813Z,101873.19
2018-08-31T18:46:53.292Z,101879.74
2018-08-31T18:49:57.655Z,101878.80
2018-08-31T18:53:02.613Z,101883.57
2018-08-31T18:56:07.010Z,101882.66
2018-08-31T18:59:11.443Z,101882.19
2018-08-31T19:02:15.891Z,101889.58
2018-08-31T19:05:21.209Z,101897.41
2018-08-31T19:08:25.669Z,101898.28
2018-08-31T19:11:30.371Z,101901.34
2018-08-31T19:14:34.934Z,101898.24
2018-08-31T19:17:39.479Z,101895.63
2018-08-31T19:20:43.972Z,101903.88
2018-08-31T19:23:48.952Z,101904.80
2018-08-31T19:26:57.181Z,101909.60
2018-08-31T19:30:04.837Z,101910.32
2018-08-31T19:33:09.524Z,101912.86
2018-08-31T19:36:14.041Z,101913.66
2018-08-31T19:39:18.499Z,101915.25
2018-08-31T19:42:23.041Z,101916.12
2018-08-31T19:45:27.540Z,101914.25
2018-08-31T19:48:32.878Z,101910.28
2018-08-31T19:51:38.437Z,101918.89
2018-08-31T19:54:43.165Z,101914.83
2018-08-31T19:57:47.911Z,101916.48
2018-08-31T20:00:52.248Z,101914.17
2018-08-31T20:03:56.606Z,101920.63
2018-08-31T20:07:01.146Z,101917.03
2018-08-31T20:10:05.595Z,101921.70
2018-08-31T20:13:10.241Z,101918.89
2018-08-31T20:16:15.032Z,101923.55
2018-08-31T20:19:19.456Z,101926.98
2018-08-31T20:22:24.503Z,101929.55
2018-08-31T20:25:29.026Z,101932.50
2018-08-31T20:28:33.395Z,101929.73
2018-08-31T20:31:37.906Z,101930.98
2018-08-31T20:34:42.505Z,101937.52
2018-08-31T20:37:47.204Z,101941.84
2018-08-31T20:40:51.525Z,101933.94
2018-08-31T20:43:56.322Z,101938.23
2018-08-31T20:47:01.270Z,101941.98
2018-08-31T20:50:06.526Z,101947.97
2018-08-31T20:53:11.240Z,101948.23
2018-08-31T20:56:16.487Z,101952.48
2018-08-31T20:59:21.654Z,101953.25
2018-08-31T21:02:27.238Z,101947.95
2018-08-31T21:05:31.981Z,101951.71
2018-08-31T21:08:37.446Z,101959.92
2018-08-31T21:11:42.920Z,101962.04
2018-08-31T21:14:49.112Z,101967.59
2018-08-31T21:17:55.030Z,101965.29
2018-08-31T21:21:00.840Z,101970.02
2018-08-31T21:24:06.530Z,101968.71
2018-08-31T21:27:11.745Z,101968.71
2018-08-31T21:30:17.377Z,101972.16
2018-08-31T21:33:22.890Z,101976.37
2018-08-31T21:36:28.016Z,101983.54
2018-08-31T21:39:33.302Z,101986.89
2018-08-31T21:42:37.714Z,101986.75
2018-08-31T21:45:41.930Z,101988.48
2018-08-31T21:48:47.485Z,101991.92
2018-08-31T21:51:51.962Z,101990.17
2018-08-31T21:54:56.258Z,101994.54
2018-08-31T21:58:00.637Z,101997.52
2018-08-31T22:01:10.280Z,101999.19
2018-08-31T22:04:14.797Z,101993.11
2018-08-31T22:07:19.789Z,101990.41
2018-08-31T22:10:24.173Z,101997.31
2018-08-31T22:13:28.555Z,101996.25
2018-08-31T22:16:33.985Z,101996.98
2018-08-31T22:19:38.338Z,101998.16
2018-08-31T22:22:42.736Z,101998.59
2018-08-31T22:25:47.448Z,102001.05
2018-08-31T22:28:51.813Z,102005.28
2018-08-31T22:31:56.111Z,102003.05
2018-08-31T22:35:00.535Z,102000.76
2018-08-31T22:38:05.299Z,102005.92
2018-08-31T22:41:09.951Z,102013.36
2018-08-31T22:44:14.335Z,102012.87
2018-08-31T22:47:18.637Z,102009.68
2018-08-31T22:50:23.001Z,102012.53
2018-08-31T22:53:27.264Z,102009.68
2018-08-31T22:56:31.637Z,102010.91
2018-08-31T22:59:36.409Z,102009.60
2018-08-31T23:02:41.031Z,102011.28
2018-08-31T23:05:45.417Z,102009.97
2018-08-31T23:08:50.055Z,102009.83
2018-08-31T23:11:54.954Z,102012.81
2018-08-31T23:14:59.293Z,102016.30
2018-08-31T23:18:03.702Z,102015.40
2018-08-31T23:21:08.753Z,102014.09
2018-08-31T23:24:13.083Z,102013.61
2018-08-31T23:27:17.516Z,102012.59
2018-08-31T23:30:22.021Z,102019.45
2018-08-31T23:33:26.441Z,102019.66
2018-08-31T23:36:31.157Z,102016.33
2018-08-31T23:39:35.460Z,102021.83
2018-08-31T23:42:39.845Z,102027.92
2018-08-31T23:45:44.179Z,102021.38
2018-08-31T23:48:48.651Z,102030.08
2018-08-31T23:51:53.093Z,102033.92
2018-08-31T23:54:57.522Z,102031.72
2018-08-31T23:58:01.890Z,102029.56
